Time;durP1;ratioP1;P1;durP2;ratioP2;P2;SDS_P1;SDS_P2;PMS_P1;PMS_P2;Temp;Humidity;BMP_temperature;BMP_pressure;BME280_temperature;BME280_humidity;BME280_pressure;Samples;Min_cycle;Max_cycle;Signal;HPM_P1;HPM_P2
2023/04/02 00:01:46;;;;;;;2.75;1.50;;;;;;;;;;5042523;28;20471;-65
2023/04/02 00:04:36;;;;;;;3.55;1.48;;;;;;;;;;5042747;28;20048;-65
2023/04/02 00:07:32;;;;;;;3.80;1.38;;;;;;;;;;5040844;28;20041;-65
2023/04/02 00:09:58;;;;;;;2.17;1.45;;;;;;;;;;5022913;28;20064;-65
2023/04/02 00:12:25;;;;;;;5.00;1.73;;;;;;;;;;5042446;28;20056;-64
2023/04/02 00:14:53;;;;;;;4.28;1.85;;;;;;;;;;5040911;28;20064;-65
2023/04/02 00:17:21;;;;;;;3.85;2.03;;;;;;;;;;5040467;28;20045;-64
2023/04/02 00:19:53;;;;;;;5.55;2.10;;;;;;;;;;5041639;28;20124;-65
2023/04/02 00:22:20;;;;;;;5.18;2.00;;;;;;;;;;5040947;28;20102;-64
2023/04/02 00:24:49;;;;;;;4.10;2.05;;;;;;;;;;5041806;28;20379;-64
2023/04/02 00:27:15;;;;;;;7.53;1.73;;;;;;;;;;5040861;28;20056;-65
2023/04/02 00:29:45;;;;;;;2.30;1.35;;;;;;;;;;5042606;28;20411;-65
2023/04/02 00:32:16;;;;;;;3.10;1.63;;;;;;;;;;5045810;28;20084;-65
2023/04/02 00:34:42;;;;;;;3.77;1.90;;;;;;;;;;5045320;28;20471;-65
2023/04/02 00:37:17;;;;;;;2.30;1.35;;;;;;;;;;5044212;28;20095;-65
2023/04/02 00:39:43;;;;;;;2.05;1.63;;;;;;;;;;5042989;28;20094;-65
2023/04/02 00:42:11;;;;;;;2.10;1.50;;;;;;;;;;5043697;28;20064;-65
2023/04/02 00:44:41;;;;;;;3.88;2.00;;;;;;;;;;5044975;28;20395;-64
2023/04/02 00:47:17;;;;;;;3.92;1.40;;;;;;;;;;5044814;28;20068;-65
2023/04/02 00:49:43;;;;;;;2.78;1.35;;;;;;;;;;5044684;28;20140;-65
2023/04/02 00:52:12;;;;;;;3.33;1.33;;;;;;;;;;5042352;28;20075;-64
2023/04/02 00:54:44;;;;;;;3.33;1.90;;;;;;;;;;5045782;28;20041;-64
2023/04/02 00:57:15;;;;;;;4.10;2.28;;;;;;;;;;5044380;28;20045;-65
2023/04/02 01:00:10;;;;;;;1.95;1.30;;;;;;;;;;5046766;28;20698;-65
2023/04/02 01:02:39;;;;;;;1.95;1.20;;;;;;;;;;5031635;28;20060;-65
2023/04/02 01:05:14;;;;;;;3.08;1.20;;;;;;;;;;5045286;28;20064;-65
2023/04/02 01:07:46;;;;;;;2.15;1.08;;;;;;;;;;5044055;28;20349;-65
2023/04/02 01:10:27;;;;;;;2.38;1.63;;;;;;;;;;5043081;28;20132;-65
2023/04/02 01:13:12;;;;;;;3.55;1.25;;;;;;;;;;5045084;28;20098;-64
2023/04/02 01:15:41;;;;;;;2.20;1.40;;;;;;;;;;5045257;28;20064;-64
2023/04/02 01:18:30;;;;;;;3.17;1.63;;;;;;;;;;5044518;28;20033;-64
2023/04/02 01:21:16;;;;;;;1.73;1.30;;;;;;;;;;5045200;28;20769;-64
2023/04/02 01:24:03;;;;;;;2.15;1.70;;;;;;;;;;5043523;28;20071;-65
2023/04/02 01:26:48;;;;;;;1.60;1.23;;;;;;;;;;5044077;28;20450;-64
2023/04/02 01:29:19;;;;;;;2.45;1.05;;;;;;;;;;5043447;28;20037;-64
2023/04/02 01:31:46;;;;;;;3.38;1.30;;;;;;;;;;5042787;28;20156;-65
2023/04/02 01:34:14;;;;;;;2.95;1.65;;;;;;;;;;5043056;28;20499;-64
2023/04/02 01:36:50;;;;;;;6.60;1.50;;;;;;;;;;5044712;28;20183;-65
2023/04/02 01:39:34;;;;;;;2.65;1.10;;;;;;;;;;5043251;28;20049;-64
2023/04/02 01:42:00;;;;;;;2.10;1.20;;;;;;;;;;5042517;28;20049;-65
2023/04/02 01:44:33;;;;;;;2.33;1.30;;;;;;;;;;5043895;28;20060;-65
2023/04/02 01:47:02;;;;;;;1.67;1.02;;;;;;;;;;5042017;28;20041;-65
2023/04/02 01:49:29;;;;;;;2.30;0.98;;;;;;;;;;5042441;28;20488;-64
2023/04/02 01:51:55;;;;;;;3.10;1.58;;;;;;;;;;5041325;28;20044;-65
2023/04/02 01:54:22;;;;;;;1.23;1.05;;;;;;;;;;5043016;28;20083;-64
2023/04/02 01:56:49;;;;;;;1.75;1.40;;;;;;;;;;5044165;28;20499;-64
2023/04/02 01:59:18;;;;;;;4.45;1.10;;;;;;;;;;5043369;28;20045;-64
2023/04/02 02:02:23;;;;;;;1.90;1.10;;;;;;;;;;5042830;28;20079;-64
2023/04/02 02:04:49;;;;;;;2.42;1.35;;;;;;;;;;4978841;28;20089;-64
2023/04/02 02:07:19;;;;;;;1.77;1.05;;;;;;;;;;5031306;28;20067;-65
2023/04/02 02:09:46;;;;;;;3.15;1.15;;;;;;;;;;5042752;28;20430;-65
2023/04/02 02:12:13;;;;;;;2.15;1.73;;;;;;;;;;5042058;28;20052;-65
2023/04/02 02:14:45;;;;;;;3.30;1.45;;;;;;;;;;5040297;28;20055;-64
2023/04/02 02:17:14;;;;;;;2.03;1.08;;;;;;;;;;5041201;28;20051;-65
2023/04/02 02:19:47;;;;;;;4.57;1.50;;;;;;;;;;5043142;28;20120;-65
2023/04/02 02:22:32;;;;;;;1.77;1.30;;;;;;;;;;5042634;28;20487;-64
2023/04/02 02:24:59;;;;;;;4.28;1.67;;;;;;;;;;5042547;28;20068;-64
2023/04/02 02:27:25;;;;;;;1.77;1.08;;;;;;;;;;5043654;28;20057;-65
2023/04/02 02:29:56;;;;;;;2.35;1.00;;;;;;;;;;5043150;28;20099;-65
2023/04/02 02:32:25;;;;;;;6.40;1.30;;;;;;;;;;5043645;28;20049;-65
2023/04/02 02:34:58;;;;;;;2.17;1.00;;;;;;;;;;5041269;28;20041;-64
2023/04/02 02:37:27;;;;;;;4.35;1.20;;;;;;;;;;5043851;28;20395;-65
2023/04/02 02:39:55;;;;;;;1.80;1.08;;;;;;;;;;5043470;28;20037;-64
2023/04/02 02:42:24;;;;;;;1.70;1.20;;;;;;;;;;5041611;28;20051;-64
2023/04/02 02:44:51;;;;;;;3.83;1.20;;;;;;;;;;5042293;28;20991;-65
2023/04/02 02:47:37;;;;;;;7.15;1.13;;;;;;;;;;5041886;28;20063;-64
2023/04/02 02:50:05;;;;;;;2.28;1.00;;;;;;;;;;5042962;28;20049;-65
2023/04/02 02:52:34;;;;;;;3.00;0.93;;;;;;;;;;5041735;28;20445;-65
2023/04/02 02:55:09;;;;;;;3.90;1.20;;;;;;;;;;5041307;28;20673;-65
2023/04/02 02:57:38;;;;;;;5.35;1.35;;;;;;;;;;5043070;28;20689;-64
2023/04/02 03:00:05;;;;;;;2.72;1.23;;;;;;;;;;5041980;28;20033;-65
2023/04/02 03:02:32;;;;;;;4.03;0.90;;;;;;;;;;5042006;28;20041;-65
2023/04/02 03:05:01;;;;;;;2.10;1.17;;;;;;;;;;5042159;28;20051;-64
2023/04/02 03:07:29;;;;;;;1.50;0.93;;;;;;;;;;5042052;28;20049;-65
2023/04/02 03:10:15;;;;;;;2.28;1.15;;;;;;;;;;5042018;28;20202;-65
2023/04/02 03:13:00;;;;;;;1.30;0.85;;;;;;;;;;5042612;28;20139;-64
2023/04/02 03:15:34;;;;;;;3.97;1.20;;;;;;;;;;5043184;28;20509;-64
2023/04/02 03:18:27;;;;;;;3.05;1.83;;;;;;;;;;5041811;28;20044;-64
2023/04/02 03:20:56;;;;;;;2.03;0.82;;;;;;;;;;5037873;28;20064;-65
2023/04/02 03:23:25;;;;;;;1.55;1.02;;;;;;;;;;5042450;28;20076;-65
2023/04/02 03:26:00;;;;;;;1.48;0.82;;;;;;;;;;5040791;28;20140;-65
2023/04/02 03:28:31;;;;;;;1.52;0.88;;;;;;;;;;5041322;28;20059;-65
2023/04/02 03:31:25;;;;;;;1.70;1.38;;;;;;;;;;5040628;28;20531;-65
2023/04/02 03:33:55;;;;;;;3.53;1.00;;;;;;;;;;5013150;28;20145;-64
2023/04/02 03:36:27;;;;;;;3.05;1.17;;;;;;;;;;5040949;28;20114;-65
2023/04/02 03:39:12;;;;;;;1.65;1.23;;;;;;;;;;5041297;28;20053;-65
2023/04/02 03:41:38;;;;;;;3.50;0.93;;;;;;;;;;5041842;28;20090;-65
2023/04/02 03:44:11;;;;;;;3.45;1.05;;;;;;;;;;5039493;28;20399;-64
2023/04/02 03:46:39;;;;;;;2.50;0.80;;;;;;;;;;5041513;28;20048;-64
2023/04/02 03:49:26;;;;;;;2.70;1.10;;;;;;;;;;5041068;28;20194;-65
2023/04/02 03:52:02;;;;;;;5.68;0.95;;;;;;;;;;5039104;28;20171;-65
2023/04/02 03:54:28;;;;;;;3.10;0.93;;;;;;;;;;5042499;28;20643;-65
2023/04/02 03:56:54;;;;;;;3.13;0.90;;;;;;;;;;5041938;28;20049;-65
2023/04/02 03:59:33;;;;;;;2.40;0.85;;;;;;;;;;5041258;28;20407;-65
2023/04/02 04:02:11;;;;;;;1.33;0.68;;;;;;;;;;5040937;28;20052;-64
2023/04/02 04:04:39;;;;;;;1.65;1.02;;;;;;;;;;5040056;28;20126;-65
2023/04/02 04:07:19;;;;;;;3.25;1.10;;;;;;;;;;5041219;28;20045;-65
2023/04/02 04:09:46;;;;;;;2.63;1.13;;;;;;;;;;5040428;28;20059;-65
2023/04/02 04:12:25;;;;;;;3.72;1.00;;;;;;;;;;5041441;28;20041;-65
2023/04/02 04:14:54;;;;;;;1.48;0.55;;;;;;;;;;5041607;28;20529;-65
2023/04/02 04:17:48;;;;;;;5.10;1.38;;;;;;;;;;5041574;28;20045;-64
2023/04/02 04:20:20;;;;;;;2.70;0.80;;;;;;;;;;5036220;28;20060;-65
2023/04/02 04:22:48;;;;;;;2.63;0.70;;;;;;;;;;5041614;28;20102;-65
2023/04/02 04:25:24;;;;;;;2.15;0.60;;;;;;;;;;5038733;28;20441;-65
2023/04/02 04:28:09;;;;;;;1.73;0.65;;;;;;;;;;5040360;28;20037;-65
2023/04/02 04:30:50;;;;;;;1.48;0.63;;;;;;;;;;5039842;28;20099;-65
2023/04/02 04:33:25;;;;;;;1.48;0.65;;;;;;;;;;5040741;28;20060;-65
2023/04/02 04:35:53;;;;;;;1.42;0.60;;;;;;;;;;5040065;28;20776;-65
2023/04/02 04:38:26;;;;;;;2.05;0.80;;;;;;;;;;5039476;28;20052;-65
2023/04/02 04:41:23;;;;;;;2.30;0.60;;;;;;;;;;5039336;28;21272;-64
2023/04/02 04:43:55;;;;;;;3.10;0.80;;;;;;;;;;5023517;28;20053;-65
2023/04/02 04:46:30;;;;;;;2.83;0.80;;;;;;;;;;5040706;28;20085;-64
2023/04/02 04:49:02;;;;;;;1.48;0.70;;;;;;;;;;5039770;28;20461;-64
2023/04/02 04:51:40;;;;;;;4.80;0.93;;;;;;;;;;5042411;28;20431;-65
2023/04/02 04:54:11;;;;;;;2.03;0.52;;;;;;;;;;5040374;28;20818;-65
2023/04/02 04:56:37;;;;;;;2.55;0.60;;;;;;;;;;5039459;28;20965;-65
2023/04/02 04:59:16;;;;;;;1.92;0.80;;;;;;;;;;5041242;28;20033;-65
2023/04/02 05:01:47;;;;;;;1.58;0.55;;;;;;;;;;5041009;28;20407;-65
2023/04/02 05:04:32;;;;;;;1.58;0.60;;;;;;;;;;5041391;28;20044;-64
2023/04/02 05:07:01;;;;;;;3.15;0.65;;;;;;;;;;5041644;28;20037;-64
2023/04/02 05:09:33;;;;;;;1.05;0.50;;;;;;;;;;5041808;28;20428;-64
2023/04/02 05:12:05;;;;;;;2.15;0.75;;;;;;;;;;5038455;28;20559;-64
2023/04/02 05:14:33;;;;;;;0.80;0.38;;;;;;;;;;5041412;28;20047;-65
2023/04/02 05:17:09;;;;;;;1.45;0.52;;;;;;;;;;5041996;28;20422;-65
2023/04/02 05:19:44;;;;;;;4.10;1.08;;;;;;;;;;5045413;28;20033;-64
2023/04/02 05:22:16;;;;;;;5.40;1.20;;;;;;;;;;5043122;28;20358;-64
2023/04/02 05:24:46;;;;;;;4.47;0.50;;;;;;;;;;5043972;28;20484;-65
2023/04/02 05:27:20;;;;;;;2.53;0.70;;;;;;;;;;5044374;28;20116;-64
2023/04/02 05:29:49;;;;;;;4.32;0.88;;;;;;;;;;5042254;28;20163;-65
2023/04/02 05:32:18;;;;;;;4.40;1.00;;;;;;;;;;5044470;28;20155;-64
2023/04/02 05:34:47;;;;;;;0.68;0.50;;;;;;;;;;5042687;28;20652;-65
2023/04/02 05:37:16;;;;;;;4.53;0.80;;;;;;;;;;5042515;28;20060;-65
2023/04/02 05:39:44;;;;;;;1.10;0.60;;;;;;;;;;5043577;28;20048;-64
2023/04/02 05:42:24;;;;;;;0.60;0.47;;;;;;;;;;5044156;28;20045;-64
2023/04/02 05:45:09;;;;;;;4.38;0.80;;;;;;;;;;5043723;28;20045;-64
2023/04/02 05:47:39;;;;;;;1.52;0.50;;;;;;;;;;5038790;28;20088;-64
2023/04/02 05:50:08;;;;;;;2.28;0.77;;;;;;;;;;5045189;28;20072;-65
2023/04/02 05:52:47;;;;;;;2.42;0.73;;;;;;;;;;5044499;28;20600;-64
2023/04/02 05:55:17;;;;;;;4.70;1.15;;;;;;;;;;5044015;28;20498;-64
2023/04/02 05:57:52;;;;;;;3.60;1.63;;;;;;;;;;5041716;28;20053;-65
2023/04/02 06:00:24;;;;;;;0.82;0.50;;;;;;;;;;5042477;28;20514;-65
2023/04/02 06:02:55;;;;;;;1.67;0.55;;;;;;;;;;5043838;28;20076;-65
2023/04/02 06:05:26;;;;;;;2.22;0.85;;;;;;;;;;5043194;28;20478;-65
2023/04/02 06:08:18;;;;;;;2.45;0.60;;;;;;;;;;5042619;28;20053;-65
2023/04/02 06:11:10;;;;;;;3.92;0.93;;;;;;;;;;5039888;28;20060;-65
2023/04/02 06:13:37;;;;;;;1.45;0.60;;;;;;;;;;5039649;28;20560;-65
2023/04/02 06:16:03;;;;;;;2.15;0.80;;;;;;;;;;5044076;28;20106;-65
2023/04/02 06:18:34;;;;;;;3.10;1.13;;;;;;;;;;5044632;28;20142;-65
2023/04/02 06:21:00;;;;;;;1.40;0.70;;;;;;;;;;5042284;28;20471;-64
2023/04/02 06:23:29;;;;;;;1.27;0.55;;;;;;;;;;5041418;28;20051;-65
2023/04/02 06:26:02;;;;;;;1.42;0.80;;;;;;;;;;5042390;28;20053;-65
2023/04/02 06:28:32;;;;;;;1.88;0.80;;;;;;;;;;5043721;28;20043;-65
2023/04/02 06:31:00;;;;;;;1.85;0.73;;;;;;;;;;5043544;28;20088;-64
2023/04/02 06:33:26;;;;;;;1.83;0.73;;;;;;;;;;5041861;28;20051;-64
2023/04/02 06:35:54;;;;;;;2.80;1.33;;;;;;;;;;5041885;28;20037;-66
2023/04/02 06:38:24;;;;;;;2.17;0.95;;;;;;;;;;5043377;28;20579;-65
2023/04/02 06:40:52;;;;;;;4.10;0.88;;;;;;;;;;5041638;28;20049;-65
2023/04/02 06:43:21;;;;;;;1.65;0.60;;;;;;;;;;5042958;28;20057;-65
2023/04/02 06:45:49;;;;;;;2.45;0.80;;;;;;;;;;5041956;28;20162;-65
2023/04/02 06:48:16;;;;;;;0.98;0.63;;;;;;;;;;5042974;28;20040;-65
2023/04/02 06:50:52;;;;;;;1.70;0.75;;;;;;;;;;5042012;28;20059;-65
2023/04/02 06:53:39;;;;;;;0.98;0.60;;;;;;;;;;5042781;28;20091;-65
2023/04/02 06:56:11;;;;;;;3.22;1.10;;;;;;;;;;5042016;28;20045;-65
2023/04/02 06:58:37;;;;;;;2.58;0.90;;;;;;;;;;5042310;28;20573;-65
2023/04/02 07:01:03;;;;;;;1.75;1.00;;;;;;;;;;5039753;28;20127;-65
2023/04/02 07:03:33;;;;;;;1.27;0.90;;;;;;;;;;5042476;28;20111;-65
2023/04/02 07:06:01;;;;;;;2.90;0.90;;;;;;;;;;5043651;28;20367;-65
2023/04/02 07:08:27;;;;;;;4.72;1.35;;;;;;;;;;5042342;28;20391;-65
2023/04/02 07:10:55;;;;;;;2.38;0.52;;;;;;;;;;5042986;28;20344;-65
2023/04/02 07:13:22;;;;;;;4.22;1.17;;;;;;;;;;5042166;28;20052;-65
2023/04/02 07:15:50;;;;;;;1.23;0.68;;;;;;;;;;5036233;28;20050;-65
2023/04/02 07:18:37;;;;;;;1.13;0.70;;;;;;;;;;5040894;28;20053;-65
2023/04/02 07:21:03;;;;;;;2.08;0.82;;;;;;;;;;5042852;28;20113;-65
2023/04/02 07:23:29;;;;;;;3.15;0.63;;;;;;;;;;5041507;28;20075;-65
2023/04/02 07:25:58;;;;;;;3.22;0.80;;;;;;;;;;5040972;28;20257;-65
2023/04/02 07:28:25;;;;;;;2.08;0.85;;;;;;;;;;5043417;28;20156;-65
2023/04/02 07:30:51;;;;;;;1.67;1.00;;;;;;;;;;5042504;28;20055;-66
2023/04/02 07:33:19;;;;;;;1.70;0.98;;;;;;;;;;5039405;28;20041;-65
2023/04/02 07:35:45;;;;;;;3.65;0.60;;;;;;;;;;5045286;28;20060;-64
2023/04/02 07:38:11;;;;;;;2.97;0.90;;;;;;;;;;5044510;28;20053;-65
2023/04/02 07:40:37;;;;;;;1.75;0.63;;;;;;;;;;5043465;28;20083;-65
2023/04/02 07:43:04;;;;;;;5.25;0.88;;;;;;;;;;5044229;28;20547;-65
2023/04/02 07:45:30;;;;;;;1.45;0.88;;;;;;;;;;5043402;28;20810;-66
2023/04/02 07:47:56;;;;;;;1.00;0.47;;;;;;;;;;5043638;28;20056;-66
2023/04/02 07:50:22;;;;;;;3.10;1.02;;;;;;;;;;5040688;28;20115;-66
2023/04/02 07:52:49;;;;;;;2.90;0.77;;;;;;;;;;5041530;28;20048;-65
2023/04/02 07:55:16;;;;;;;3.58;0.90;;;;;;;;;;5042874;28;20049;-65
2023/04/02 07:57:49;;;;;;;3.15;1.10;;;;;;;;;;5041997;28;20131;-65
2023/04/02 08:00:15;;;;;;;1.65;0.60;;;;;;;;;;5042109;28;20098;-65
2023/04/02 08:02:41;;;;;;;2.83;0.70;;;;;;;;;;5041913;28;20059;-66
2023/04/02 08:05:09;;;;;;;3.83;0.95;;;;;;;;;;5041441;28;20056;-65
2023/04/02 08:07:35;;;;;;;4.88;1.25;;;;;;;;;;5042529;28;20079;-65
2023/04/02 08:10:01;;;;;;;5.65;0.80;;;;;;;;;;5041707;28;20431;-65
2023/04/02 08:12:27;;;;;;;4.20;0.70;;;;;;;;;;5037044;28;20482;-68
2023/04/02 08:14:54;;;;;;;1.60;1.08;;;;;;;;;;5036910;28;20499;-67
2023/04/02 08:17:20;;;;;;;3.20;0.80;;;;;;;;;;5038809;28;20491;-68
2023/04/02 08:19:46;;;;;;;1.95;0.90;;;;;;;;;;5043555;28;20081;-67
2023/04/02 08:22:12;;;;;;;2.40;0.80;;;;;;;;;;5043721;28;20037;-67
2023/04/02 08:24:38;;;;;;;2.17;0.80;;;;;;;;;;5044649;28;20080;-67
2023/04/02 08:27:04;;;;;;;3.30;1.38;;;;;;;;;;5043293;28;20490;-67
2023/04/02 08:29:33;;;;;;;3.25;1.00;;;;;;;;;;5042370;28;20049;-66
2023/04/02 08:32:00;;;;;;;3.03;1.00;;;;;;;;;;5042022;28;20045;-66
2023/04/02 08:34:26;;;;;;;3.60;1.38;;;;;;;;;;5042295;28;20546;-66
2023/04/02 08:36:55;;;;;;;4.68;0.73;;;;;;;;;;5043148;28;20063;-66
2023/04/02 08:39:21;;;;;;;2.67;0.75;;;;;;;;;;5042567;28;20057;-66
2023/04/02 08:41:52;;;;;;;2.90;0.85;;;;;;;;;;5042417;28;20044;-66
2023/04/02 08:44:26;;;;;;;2.22;1.02;;;;;;;;;;5042893;28;20140;-66
2023/04/02 08:46:55;;;;;;;3.33;1.08;;;;;;;;;;5042649;28;20048;-67
2023/04/02 08:49:53;;;;;;;3.25;0.80;;;;;;;;;;5041751;28;20485;-66
2023/04/02 08:52:26;;;;;;;1.55;0.75;;;;;;;;;;5012293;28;20143;-66
2023/04/02 08:54:55;;;;;;;3.03;1.02;;;;;;;;;;5040536;28;20674;-66
2023/04/02 08:57:20;;;;;;;4.43;1.02;;;;;;;;;;5046722;28;20131;-66
2023/04/02 08:59:47;;;;;;;3.03;0.95;;;;;;;;;;5047194;28;20174;-66
2023/04/02 09:02:16;;;;;;;1.45;0.80;;;;;;;;;;5045681;28;20469;-66
2023/04/02 09:04:42;;;;;;;2.63;0.73;;;;;;;;;;5046618;28;20406;-67
2023/04/02 09:07:12;;;;;;;2.58;1.02;;;;;;;;;;5045459;28;20045;-66
2023/04/02 09:09:38;;;;;;;1.95;0.77;;;;;;;;;;5042522;28;20051;-65
2023/04/02 09:12:05;;;;;;;3.75;0.88;;;;;;;;;;5043352;28;20400;-66
2023/04/02 09:14:34;;;;;;;2.42;0.85;;;;;;;;;;5036702;28;20052;-66
2023/04/02 09:17:09;;;;;;;3.72;0.88;;;;;;;;;;5045015;28;20083;-66
2023/04/02 09:19:40;;;;;;;1.52;0.50;;;;;;;;;;5044553;28;20045;-66
2023/04/02 09:22:08;;;;;;;2.70;0.50;;;;;;;;;;5041504;28;20045;-65
2023/04/02 09:24:36;;;;;;;1.38;0.75;;;;;;;;;;5043231;28;20044;-66
2023/04/02 09:27:02;;;;;;;3.10;0.98;;;;;;;;;;5044562;28;20080;-66
2023/04/02 09:29:38;;;;;;;1.48;0.70;;;;;;;;;;5041996;28;20094;-66
2023/04/02 09:32:07;;;;;;;0.77;0.55;;;;;;;;;;5044714;28;20105;-66
2023/04/02 09:34:34;;;;;;;1.60;0.68;;;;;;;;;;5042882;28;20078;-66
2023/04/02 09:37:14;;;;;;;1.88;0.80;;;;;;;;;;5043338;28;20033;-65
2023/04/02 09:39:40;;;;;;;1.55;0.75;;;;;;;;;;5040409;28;20041;-65
2023/04/02 09:42:07;;;;;;;2.25;0.50;;;;;;;;;;5040611;28;20053;-65
2023/04/02 09:44:33;;;;;;;1.23;0.70;;;;;;;;;;5041934;28;20513;-65
2023/04/02 09:47:03;;;;;;;1.50;0.60;;;;;;;;;;5040853;28;20140;-66
2023/04/02 09:49:30;;;;;;;1.20;0.50;;;;;;;;;;5041859;28;20056;-65
2023/04/02 09:52:17;;;;;;;2.13;0.47;;;;;;;;;;5038540;28;20505;-65
2023/04/02 09:54:43;;;;;;;1.33;0.52;;;;;;;;;;5042872;28;20099;-65
2023/04/02 09:57:23;;;;;;;0.60;0.30;;;;;;;;;;5042966;28;20041;-65
2023/04/02 10:00:13;;;;;;;0.98;0.32;;;;;;;;;;5043374;28;20430;-65
2023/04/02 10:02:40;;;;;;;1.02;0.40;;;;;;;;;;5033450;28;20044;-66
2023/04/02 10:05:14;;;;;;;0.82;0.40;;;;;;;;;;5040000;28;20045;-65
2023/04/02 10:07:41;;;;;;;2.75;0.50;;;;;;;;;;5037244;28;20490;-65
2023/04/02 10:10:16;;;;;;;3.38;0.47;;;;;;;;;;5040043;28;20041;-65
2023/04/02 10:12:44;;;;;;;1.20;0.40;;;;;;;;;;5041602;28;20336;-65
2023/04/02 10:15:16;;;;;;;3.88;0.88;;;;;;;;;;5038555;28;20037;-65
2023/04/02 10:17:43;;;;;;;2.53;0.80;;;;;;;;;;5036050;28;20041;-65
2023/04/02 10:20:20;;;;;;;1.02;0.40;;;;;;;;;;5041941;28;20037;-65
2023/04/02 10:22:46;;;;;;;0.80;0.52;;;;;;;;;;5042443;28;20355;-65
2023/04/02 10:25:16;;;;;;;1.45;0.50;;;;;;;;;;5042483;28;20477;-65
2023/04/02 10:28:05;;;;;;;1.05;0.52;;;;;;;;;;5041715;28;20036;-65
2023/04/02 10:30:50;;;;;;;2.03;0.52;;;;;;;;;;5039463;28;20061;-65
2023/04/02 10:33:36;;;;;;;2.55;0.65;;;;;;;;;;5033887;28;20114;-65
2023/04/02 10:36:18;;;;;;;4.13;0.77;;;;;;;;;;5040609;28;20049;-65
2023/04/02 10:38:44;;;;;;;2.08;0.40;;;;;;;;;;5040321;28;20045;-65
2023/04/02 10:41:26;;;;;;;1.83;0.55;;;;;;;;;;5043224;28;20041;-65
2023/04/02 10:44:04;;;;;;;1.10;0.40;;;;;;;;;;5040155;28;20075;-65
2023/04/02 10:46:30;;;;;;;2.13;0.50;;;;;;;;;;5040419;28;20781;-65
2023/04/02 10:49:20;;;;;;;1.63;0.57;;;;;;;;;;5043368;28;20052;-65
2023/04/02 10:52:05;;;;;;;0.95;0.40;;;;;;;;;;5043124;28;20076;-65
2023/04/02 10:54:52;;;;;;;1.25;0.52;;;;;;;;;;5042718;28;20044;-65
2023/04/02 10:57:18;;;;;;;1.33;0.40;;;;;;;;;;5043092;28;20044;-65
2023/04/02 10:59:46;;;;;;;1.05;0.40;;;;;;;;;;5043291;28;20036;-65
2023/04/02 11:02:36;;;;;;;0.93;0.47;;;;;;;;;;5040696;28;20632;-65
2023/04/02 11:05:05;;;;;;;1.20;0.43;;;;;;;;;;5001356;28;20088;-65
2023/04/02 11:07:36;;;;;;;0.82;0.35;;;;;;;;;;5042430;28;20041;-65
2023/04/02 11:10:02;;;;;;;2.17;0.65;;;;;;;;;;5042648;28;20044;-65
2023/04/02 11:12:31;;;;;;;2.45;0.82;;;;;;;;;;5042934;28;20045;-65
2023/04/02 11:14:58;;;;;;;0.80;0.40;;;;;;;;;;5041123;28;20041;-65
2023/04/02 11:17:24;;;;;;;1.80;0.70;;;;;;;;;;5038425;28;20056;-65
2023/04/02 11:19:51;;;;;;;1.40;0.50;;;;;;;;;;5042444;28;20067;-66
2023/04/02 11:22:21;;;;;;;2.15;1.00;;;;;;;;;;5038029;28;20487;-64
2023/04/02 11:24:52;;;;;;;3.17;0.80;;;;;;;;;;5036320;28;20037;-66
2023/04/02 11:27:22;;;;;;;0.73;0.25;;;;;;;;;;5039118;28;20135;-66
2023/04/02 11:29:51;;;;;;;1.33;0.38;;;;;;;;;;5039291;28;20402;-66
2023/04/02 11:32:20;;;;;;;0.90;0.35;;;;;;;;;;5040847;28;20071;-66
2023/04/02 11:34:46;;;;;;;1.20;0.40;;;;;;;;;;5039316;28;20071;-65
2023/04/02 11:37:30;;;;;;;1.15;0.40;;;;;;;;;;5037283;28;20518;-66
2023/04/02 11:39:58;;;;;;;0.60;0.45;;;;;;;;;;5034132;28;20132;-66
2023/04/02 11:42:34;;;;;;;0.50;0.20;;;;;;;;;;5036137;28;20132;-66
2023/04/02 11:45:19;;;;;;;0.75;0.50;;;;;;;;;;5037994;28;20045;-65
2023/04/02 11:48:00;;;;;;;1.38;0.40;;;;;;;;;;5042491;28;20048;-67
2023/04/02 11:50:36;;;;;;;2.05;0.93;;;;;;;;;;5038005;28;20527;-66
2023/04/02 11:53:04;;;;;;;0.80;0.35;;;;;;;;;;5034008;28;20675;-66
2023/04/02 11:55:31;;;;;;;0.93;0.35;;;;;;;;;;5033668;28;20136;-66
2023/04/02 11:58:16;;;;;;;2.00;0.80;;;;;;;;;;5038705;28;20045;-66
2023/04/02 12:00:58;;;;;;;0.75;0.40;;;;;;;;;;5031763;28;20060;-66
2023/04/02 12:03:28;;;;;;;1.05;0.40;;;;;;;;;;5037972;28;20620;-66
2023/04/02 12:06:01;;;;;;;3.15;0.63;;;;;;;;;;5038087;28;20777;-66
2023/04/02 12:08:36;;;;;;;1.85;0.43;;;;;;;;;;5040628;28;20131;-66
2023/04/02 12:11:02;;;;;;;1.52;0.57;;;;;;;;;;5038667;28;20051;-66
2023/04/02 12:13:41;;;;;;;0.98;0.43;;;;;;;;;;5039428;28;20064;-66
2023/04/02 12:16:07;;;;;;;0.77;0.40;;;;;;;;;;5034140;28;20576;-67
2023/04/02 12:18:34;;;;;;;1.85;0.68;;;;;;;;;;5040125;28;20052;-66
2023/04/02 12:21:00;;;;;;;0.75;0.40;;;;;;;;;;5040852;28;20062;-67
2023/04/02 12:23:30;;;;;;;1.48;0.60;;;;;;;;;;5042237;28;20049;-67
2023/04/02 12:26:07;;;;;;;1.50;0.65;;;;;;;;;;5040312;28;20777;-67
2023/04/02 12:28:33;;;;;;;1.65;0.50;;;;;;;;;;5042262;28;20057;-67
2023/04/02 12:31:08;;;;;;;2.67;0.77;;;;;;;;;;5040476;28;20253;-67
2023/04/02 12:33:36;;;;;;;1.45;0.35;;;;;;;;;;5036431;28;20091;-66
2023/04/02 12:36:21;;;;;;;2.63;1.00;;;;;;;;;;5041265;28;20044;-66
2023/04/02 12:38:55;;;;;;;1.70;0.38;;;;;;;;;;5039311;28;20072;-68
2023/04/02 12:41:22;;;;;;;0.98;0.40;;;;;;;;;;5034178;28;20072;-67
2023/04/02 12:43:55;;;;;;;1.00;0.45;;;;;;;;;;5035051;28;20046;-67
2023/04/02 12:46:24;;;;;;;2.63;0.40;;;;;;;;;;5036097;28;20507;-66
2023/04/02 12:48:50;;;;;;;2.17;0.73;;;;;;;;;;5039101;28;20037;-66
2023/04/02 12:51:16;;;;;;;3.50;0.80;;;;;;;;;;5040000;28;20060;-67
2023/04/02 12:53:48;;;;;;;1.85;0.70;;;;;;;;;;5040240;28;20045;-67
2023/04/02 12:56:20;;;;;;;1.10;0.47;;;;;;;;;;5039632;28;20057;-66
2023/04/02 12:58:47;;;;;;;;;;;;;;;;;;5037511;28;20059;-66
2023/04/02 13:01:17;;;;;;;0.85;0.38;;;;;;;;;;5035088;28;19924;-67
2023/04/02 13:03:43;;;;;;;1.55;0.68;;;;;;;;;;5033645;28;20041;-67
2023/04/02 13:06:29;;;;;;;1.25;0.50;;;;;;;;;;5038097;28;20509;-67
2023/04/02 13:08:55;;;;;;;2.42;0.30;;;;;;;;;;5036139;28;20167;-67
2023/04/02 13:11:22;;;;;;;1.52;0.50;;;;;;;;;;5036866;28;20471;-66
2023/04/02 13:13:48;;;;;;;0.95;0.30;;;;;;;;;;5035111;28;20106;-66
2023/04/02 13:16:14;;;;;;;1.35;0.50;;;;;;;;;;5037529;28;20045;-66
2023/04/02 13:18:41;;;;;;;1.20;0.38;;;;;;;;;;5037671;28;20068;-67
2023/04/02 13:21:14;;;;;;;1.42;0.63;;;;;;;;;;5039753;28;20491;-67
2023/04/02 13:23:40;;;;;;;;;;;;;;;;;;5037287;28;20509;-67
2023/04/02 13:26:20;;;;;;;1.20;0.38;;;;;;;;;;5039506;28;19929;-67
2023/04/02 13:29:00;;;;;;;1.25;0.52;;;;;;;;;;5040245;28;20059;-67
2023/04/02 13:31:26;;;;;;;1.13;0.57;;;;;;;;;;5038908;28;20065;-66
2023/04/02 13:33:52;;;;;;;0.50;0.40;;;;;;;;;;5038892;28;20048;-67
2023/04/02 13:36:19;;;;;;;1.48;0.50;;;;;;;;;;5037574;28;20045;-67
2023/04/02 13:38:45;;;;;;;1.30;0.70;;;;;;;;;;5043143;28;20041;-67
2023/04/02 13:41:26;;;;;;;1.98;0.35;;;;;;;;;;5042555;28;20045;-67
2023/04/02 13:43:52;;;;;;;1.75;0.50;;;;;;;;;;5039136;28;20518;-67
2023/04/02 13:46:24;;;;;;;0.60;0.43;;;;;;;;;;5042097;28;20130;-67
2023/04/02 13:48:51;;;;;;;0.95;0.45;;;;;;;;;;5042132;28;20120;-66
2023/04/02 13:51:18;;;;;;;1.40;0.70;;;;;;;;;;5038648;28;20087;-66
2023/04/02 13:53:45;;;;;;;1.13;0.40;;;;;;;;;;5043031;28;20051;-67
2023/04/02 13:56:11;;;;;;;1.73;0.47;;;;;;;;;;5041894;28;20183;-66
2023/04/02 13:58:37;;;;;;;0.57;0.30;;;;;;;;;;5036066;28;20129;-66
2023/04/02 14:01:03;;;;;;;4.55;0.90;;;;;;;;;;5043613;28;20537;-67
2023/04/02 14:03:29;;;;;;;0.75;0.47;;;;;;;;;;5041598;28;20160;-67
2023/04/02 14:06:07;;;;;;;0.80;0.40;;;;;;;;;;5044623;28;20033;-67
2023/04/02 14:08:46;;;;;;;0.82;0.50;;;;;;;;;;5038386;28;20053;-67
2023/04/02 14:11:12;;;;;;;1.23;0.43;;;;;;;;;;5036491;28;20073;-65
2023/04/02 14:13:38;;;;;;;0.75;0.40;;;;;;;;;;5043817;28;20076;-65
2023/04/02 14:16:07;;;;;;;0.95;0.60;;;;;;;;;;5045746;28;20044;-67
2023/04/02 14:18:52;;;;;;;0.70;0.57;;;;;;;;;;5040401;28;20052;-65
2023/04/02 14:21:25;;;;;;;1.27;0.60;;;;;;;;;;5041536;28;20472;-66
2023/04/02 14:24:03;;;;;;;1.35;1.25;;;;;;;;;;5043402;28;20060;-66
2023/04/02 14:26:38;;;;;;;1.23;0.70;;;;;;;;;;5042500;28;20356;-66
2023/04/02 14:29:26;;;;;;;1.88;0.60;;;;;;;;;;5043095;28;20443;-66
2023/04/02 14:32:02;;;;;;;1.48;0.65;;;;;;;;;;5034618;28;20164;-66
2023/04/02 14:34:37;;;;;;;0.70;0.40;;;;;;;;;;5040887;28;20441;-66
2023/04/02 14:37:12;;;;;;;1.77;0.70;;;;;;;;;;5043106;28;20068;-65
2023/04/02 14:39:39;;;;;;;0.82;0.45;;;;;;;;;;5042743;28;20639;-66
2023/04/02 14:42:40;;;;;;;2.08;0.65;;;;;;;;;;5043879;28;20605;-66
2023/04/02 14:45:07;;;;;;;1.65;0.50;;;;;;;;;;4983793;28;20085;-66
2023/04/02 14:47:37;;;;;;;1.05;0.68;;;;;;;;;;5026641;28;20069;-66
2023/04/02 14:50:10;;;;;;;1.65;1.05;;;;;;;;;;5045122;28;20037;-66
2023/04/02 14:52:37;;;;;;;1.02;0.52;;;;;;;;;;5044835;28;20048;-66
2023/04/02 14:55:04;;;;;;;1.17;0.43;;;;;;;;;;5043867;28;20049;-66
2023/04/02 14:57:32;;;;;;;1.23;0.82;;;;;;;;;;5045631;28;20560;-66
2023/04/02 15:00:20;;;;;;;0.93;0.50;;;;;;;;;;5045036;28;20045;-66
2023/04/02 15:02:48;;;;;;;1.60;0.60;;;;;;;;;;5043848;28;20483;-66
2023/04/02 15:05:17;;;;;;;1.35;0.50;;;;;;;;;;5045083;28;20072;-66
2023/04/02 15:07:46;;;;;;;0.40;0.30;;;;;;;;;;5043860;28;20048;-65
2023/04/02 15:10:15;;;;;;;0.93;0.50;;;;;;;;;;5040953;28;20538;-67
2023/04/02 15:12:43;;;;;;;1.80;0.68;;;;;;;;;;5044907;28;21684;-66